createdAt,value
2022-12-31T00:00:40.796Z,80.70
2022-12-31T00:05:42.526Z,97.50
2022-12-31T00:10:44.672Z,83.10
2022-12-31T00:15:46.508Z,84.30
2022-12-31T00:20:48.181Z,90.30
2022-12-31T00:25:49.890Z,69.70
2022-12-31T00:30:51.648Z,71.20
2022-12-31T00:35:53.406Z,62.20
2022-12-31T00:40:55.144Z,61.10
2022-12-31T00:45:56.999Z,58.00
2022-12-31T00:50:59.826Z,52.00
2022-12-31T00:56:11.601Z,49.20
2022-12-31T01:01:21.490Z,41.50
2022-12-31T01:06:23.460Z,48.30
2022-12-31T01:11:29.367Z,44.10
2022-12-31T01:16:48.786Z,50.20
2022-12-31T01:21:51.396Z,37.90
2022-12-31T01:26:56.004Z,37.60
2022-12-31T01:31:57.799Z,33.70
2022-12-31T01:36:59.835Z,28.50
2022-12-31T01:42:01.578Z,25.30
2022-12-31T01:47:06.015Z,21.90
2022-12-31T01:52:17.372Z,18.50
2022-12-31T01:57:19.889Z,13.20
2022-12-31T02:02:21.967Z,13.10
2022-12-31T02:07:24.183Z,16.30
2022-12-31T02:12:25.979Z,14.10
2022-12-31T02:17:40.235Z,16.80
2022-12-31T02:23:06.466Z,15.20
2022-12-31T02:28:39.653Z,12.00
2022-12-31T02:33:50.989Z,13.50
2022-12-31T02:38:52.782Z,12.10
2022-12-31T02:43:54.517Z,12.20
2022-12-31T02:49:18.154Z,13.80
2022-12-31T02:54:31.076Z,12.30
2022-12-31T03:00:16.416Z,12.10
2022-12-31T03:05:23.241Z,12.50
2022-12-31T03:10:25.575Z,13.10
2022-12-31T03:15:30.405Z,11.60
2022-12-31T03:20:52.431Z,10.30
2022-12-31T03:25:56.468Z,11.80
2022-12-31T03:31:03.244Z,12.40
2022-12-31T03:36:07.507Z,12.60
2022-12-31T03:41:11.105Z,8.10
2022-12-31T03:46:12.853Z,10.00
2022-12-31T03:51:14.616Z,10.80
2022-12-31T03:56:16.312Z,9.40
2022-12-31T04:01:18.202Z,11.10
2022-12-31T04:06:19.983Z,11.10
2022-12-31T04:11:21.738Z,12.70
2022-12-31T04:16:23.446Z,13.00
2022-12-31T04:21:26.841Z,12.10
2022-12-31T04:26:32.069Z,11.30
2022-12-31T04:31:33.913Z,12.20
2022-12-31T04:36:35.869Z,9.50
2022-12-31T04:41:37.891Z,11.90
2022-12-31T04:46:39.691Z,10.90
2022-12-31T04:51:41.548Z,8.80
2022-12-31T04:56:43.317Z,10.70
2022-12-31T05:01:45.133Z,9.00
2022-12-31T05:06:47.129Z,8.80
2022-12-31T05:11:48.920Z,10.70
2022-12-31T05:16:51.211Z,10.90
2022-12-31T05:22:11.535Z,9.10
2022-12-31T05:27:13.378Z,8.50
2022-12-31T05:32:15.147Z,9.00
2022-12-31T05:37:16.860Z,9.10
2022-12-31T05:42:18.733Z,7.30
2022-12-31T05:47:20.694Z,9.90
2022-12-31T05:52:22.461Z,8.30
2022-12-31T05:57:24.236Z,7.10
2022-12-31T06:02:26.743Z,9.80
2022-12-31T06:07:28.706Z,9.40
2022-12-31T06:12:30.647Z,9.80
2022-12-31T06:17:32.660Z,10.80
2022-12-31T06:22:34.435Z,8.80
2022-12-31T06:27:36.293Z,8.80
2022-12-31T06:32:39.354Z,8.90
2022-12-31T06:37:41.146Z,9.40
2022-12-31T06:42:42.929Z,10.40
2022-12-31T06:47:44.611Z,9.10
2022-12-31T06:52:46.393Z,9.00
2022-12-31T06:57:48.388Z,12.30
2022-12-31T07:03:09.759Z,10.50
2022-12-31T07:08:33.018Z,11.20
2022-12-31T07:13:53.678Z,8.40
2022-12-31T07:19:35.950Z,11.70
2022-12-31T07:24:37.936Z,8.40
2022-12-31T07:30:01.941Z,7.70
2022-12-31T07:35:12.219Z,7.70
2022-12-31T07:40:52.061Z,8.70
2022-12-31T07:46:12.159Z,10.20
2022-12-31T07:51:14.330Z,9.00
2022-12-31T07:56:16.114Z,11.10
2022-12-31T08:01:34.891Z,9.90
2022-12-31T08:06:48.809Z,8.30
2022-12-31T08:11:58.366Z,8.50
2022-12-31T08:17:00.656Z,10.90
2022-12-31T08:22:24.035Z,9.30
2022-12-31T08:27:53.478Z,8.60
2022-12-31T08:33:18.569Z,8.50
2022-12-31T08:38:45.598Z,8.20
2022-12-31T08:44:05.866Z,7.70
2022-12-31T08:49:09.832Z,11.10
2022-12-31T08:54:12.428Z,8.50
2022-12-31T08:59:42.875Z,9.40
2022-12-31T09:05:00.053Z,9.60
2022-12-31T09:10:20.852Z,8.50
2022-12-31T09:15:33.955Z,7.80
2022-12-31T09:20:44.739Z,6.70
2022-12-31T09:26:22.504Z,6.90
2022-12-31T09:31:48.907Z,7.40
2022-12-31T09:37:05.007Z,8.00
2022-12-31T09:42:51.827Z,7.40
2022-12-31T09:48:35.989Z,6.50
2022-12-31T09:53:47.101Z,5.80
2022-12-31T09:59:07.240Z,5.60
2022-12-31T10:10:03.758Z,5.40
2022-12-31T10:15:34.959Z,7.80
2022-12-31T10:21:01.244Z,6.00
2022-12-31T10:26:06.143Z,6.90
2022-12-31T10:31:34.413Z,6.10
2022-12-31T10:36:51.917Z,5.70
2022-12-31T10:42:05.746Z,6.60
2022-12-31T10:47:52.803Z,7.10
2022-12-31T10:53:11.446Z,5.10
2022-12-31T10:58:34.831Z,5.70
2022-12-31T11:03:58.854Z,5.90
2022-12-31T11:09:27.459Z,6.30
2022-12-31T11:15:07.695Z,6.00
2022-12-31T11:20:31.612Z,6.40
2022-12-31T11:25:38.602Z,6.30
2022-12-31T11:31:20.100Z,5.80
2022-12-31T11:36:37.716Z,5.90
2022-12-31T11:41:50.973Z,6.30
2022-12-31T11:46:59.127Z,7.30
2022-12-31T11:52:22.536Z,7.10
2022-12-31T11:57:34.981Z,5.70
2022-12-31T12:02:43.955Z,6.60
2022-12-31T12:07:47.054Z,6.30
2022-12-31T12:12:49.724Z,6.40
2022-12-31T12:18:01.709Z,5.80
2022-12-31T12:23:16.116Z,6.60
2022-12-31T12:28:23.910Z,5.90
2022-12-31T12:33:26.212Z,6.60
2022-12-31T12:38:27.905Z,6.20
2022-12-31T12:43:32.440Z,7.60
2022-12-31T12:48:44.886Z,7.50
2022-12-31T12:54:14.237Z,7.30
2022-12-31T12:59:43.888Z,6.70
2022-12-31T13:05:27.883Z,6.20
2022-12-31T13:11:09.111Z,5.30
2022-12-31T13:16:40.902Z,8.30
2022-12-31T13:21:55.797Z,6.60
2022-12-31T13:27:04.651Z,7.40
2022-12-31T13:32:11.139Z,7.10
2022-12-31T13:37:39.566Z,8.00
2022-12-31T13:42:55.151Z,8.20
2022-12-31T13:48:05.776Z,7.80
2022-12-31T13:53:20.197Z,8.90
2022-12-31T13:58:40.961Z,9.50
2022-12-31T14:04:14.488Z,8.60
2022-12-31T14:09:28.326Z,6.90
2022-12-31T14:14:46.113Z,7.60
2022-12-31T14:19:55.931Z,7.60
2022-12-31T14:25:00.840Z,8.50
2022-12-31T14:30:27.816Z,9.50
2022-12-31T14:35:37.760Z,7.60
2022-12-31T14:41:13.109Z,8.50
2022-12-31T14:46:33.156Z,9.10
2022-12-31T14:56:41.824Z,7.00
2022-12-31T15:01:46.742Z,8.40
2022-12-31T15:07:04.365Z,7.00
2022-12-31T15:12:25.045Z,6.00
2022-12-31T15:17:35.701Z,8.40
2022-12-31T15:22:40.452Z,7.20
2022-12-31T15:27:47.162Z,6.80
2022-12-31T15:32:49.174Z,7.00
2022-12-31T15:38:16.942Z,8.20
2022-12-31T15:43:25.040Z,7.20
2022-12-31T15:48:46.189Z,6.80
2022-12-31T15:53:56.622Z,8.80
2022-12-31T15:59:01.669Z,8.10
2022-12-31T16:04:07.778Z,8.90
2022-12-31T16:09:36.147Z,10.40
2022-12-31T16:14:44.895Z,10.60
2022-12-31T16:19:47.150Z,8.20
2022-12-31T16:30:32.074Z,8.10
2022-12-31T16:35:36.881Z,6.90
2022-12-31T16:40:40.507Z,9.00
2022-12-31T16:45:42.313Z,8.00
2022-12-31T16:50:47.012Z,8.70
2022-12-31T16:56:09.392Z,8.70
2022-12-31T17:01:19.180Z,10.60
2022-12-31T17:06:22.326Z,13.40
2022-12-31T17:11:30.281Z,9.00
2022-12-31T17:16:34.872Z,8.90
2022-12-31T17:21:36.661Z,10.40
2022-12-31T17:26:38.518Z,8.90
2022-12-31T17:31:43.705Z,5.20
2022-12-31T17:37:00.156Z,8.20
2022-12-31T17:42:02.028Z,11.20
2022-12-31T17:47:04.274Z,7.70
2022-12-31T17:52:11.994Z,8.00
2022-12-31T17:57:28.116Z,8.80
2022-12-31T18:02:29.907Z,8.90
2022-12-31T18:07:32.022Z,9.20
2022-12-31T18:12:35.441Z,11.10
2022-12-31T18:17:37.212Z,10.20
2022-12-31T18:22:41.244Z,9.80
2022-12-31T18:27:43.086Z,9.80
2022-12-31T18:32:45.959Z,10.60
2022-12-31T18:37:47.687Z,9.70
2022-12-31T18:42:49.464Z,10.60
2022-12-31T18:47:51.203Z,11.80
2022-12-31T18:52:52.895Z,11.80
2022-12-31T18:57:54.623Z,10.10
2022-12-31T19:02:56.476Z,11.70
2022-12-31T19:07:58.774Z,11.90
2022-12-31T19:13:00.531Z,11.90
2022-12-31T19:18:03.199Z,8.40
2022-12-31T19:23:05.725Z,9.90
2022-12-31T19:28:16.144Z,9.50
2022-12-31T19:33:18.677Z,9.10
2022-12-31T19:38:23.852Z,6.50
2022-12-31T19:43:25.635Z,8.40
2022-12-31T19:48:32.554Z,9.50
2022-12-31T19:53:34.729Z,9.20
2022-12-31T19:58:36.524Z,8.70
2022-12-31T20:03:38.313Z,7.10
2022-12-31T20:08:43.391Z,8.00
2022-12-31T20:13:47.395Z,7.70
2022-12-31T20:18:50.791Z,7.10
2022-12-31T20:23:54.046Z,6.70
2022-12-31T20:28:55.738Z,5.80
2022-12-31T20:33:57.520Z,7.10
2022-12-31T20:38:59.283Z,9.00
2022-12-31T20:44:01.354Z,7.70
2022-12-31T20:49:04.813Z,7.10
2022-12-31T20:54:10.187Z,6.90
2022-12-31T20:59:11.971Z,7.70
2022-12-31T21:04:13.872Z,7.50
2022-12-31T21:09:15.752Z,8.00
2022-12-31T21:14:17.495Z,6.90
2022-12-31T21:19:19.294Z,6.90
2022-12-31T21:24:24.063Z,7.60
2022-12-31T21:29:28.845Z,9.30
2022-12-31T21:34:34.518Z,7.60
2022-12-31T21:39:36.277Z,6.60
2022-12-31T21:44:38.019Z,6.40
2022-12-31T21:49:39.738Z,8.30
2022-12-31T21:55:00.246Z,8.70
2022-12-31T22:05:47.371Z,7.40
2022-12-31T22:10:52.753Z,9.70
2022-12-31T22:16:03.997Z,10.00
2022-12-31T22:21:19.208Z,12.40
2022-12-31T22:26:25.293Z,11.00
2022-12-31T22:31:32.667Z,12.50
2022-12-31T22:36:34.650Z,10.50
2022-12-31T22:41:36.530Z,12.10
2022-12-31T22:46:38.323Z,8.80
2022-12-31T22:51:57.470Z,11.10
2022-12-31T22:57:01.287Z,14.10
2022-12-31T23:02:03.118Z,27.80
2022-12-31T23:07:04.861Z,36.30
2022-12-31T23:12:08.801Z,21.80
2022-12-31T23:17:38.011Z,24.50
2022-12-31T23:22:58.556Z,18.70
2022-12-31T23:28:00.918Z,17.20
2022-12-31T23:33:02.727Z,17.50
2022-12-31T23:38:04.471Z,15.10
2022-12-31T23:43:08.036Z,17.00
2022-12-31T23:48:09.761Z,20.70
2022-12-31T23:53:11.559Z,17.10
2022-12-31T23:58:13.403Z,18.70
